sensor_id;sensor_type;location;lat;lon;timestamp;P1;durP1;ratioP1;P2;durP2;ratioP2
56593;SDS011;42474;51.660;5.824;2022-08-20T00:03:02;11.9;;;7.7;;
56593;SDS011;42474;51.660;5.824;2022-08-20T00:07:59;12.3;;;7.4;;
56593;SDS011;42474;51.660;5.824;2022-08-20T00:12:59;12.2;;;7.4;;
56593;SDS011;42474;51.660;5.824;2022-08-20T00:17:59;10.3;;;7.1;;
56593;SDS011;42474;51.660;5.824;2022-08-20T00:22:59;11.3;;;7.2;;
56593;SDS011;42474;51.660;5.824;2022-08-20T00:27:59;10.7;;;6.6;;
56593;SDS011;42474;51.660;5.824;2022-08-20T00:33:00;8.7;;;6.1;;
56593;SDS011;42474;51.660;5.824;2022-08-20T00:37:59;9.9;;;6.2;;
56593;SDS011;42474;51.660;5.824;2022-08-20T00:43:00;8.3;;;5.8;;
56593;SDS011;42474;51.660;5.824;2022-08-20T00:47:59;8.8;;;6.1;;
56593;SDS011;42474;51.660;5.824;2022-08-20T00:52:59;10.7;;;5.8;;
56593;SDS011;42474;51.660;5.824;2022-08-20T00:57:59;8.4;;;5.9;;
56593;SDS011;42474;51.660;5.824;2022-08-20T01:02:59;8.7;;;5.9;;
56593;SDS011;42474;51.660;5.824;2022-08-20T01:07:59;9.6;;;6.1;;
56593;SDS011;42474;51.660;5.824;2022-08-20T01:12:59;9.7;;;6.6;;
56593;SDS011;42474;51.660;5.824;2022-08-20T01:17:59;10.1;;;6.7;;
56593;SDS011;42474;51.660;5.824;2022-08-20T01:23:00;10.0;;;7.3;;
56593;SDS011;42474;51.660;5.824;2022-08-20T01:27:59;11.1;;;7.3;;
56593;SDS011;42474;51.660;5.824;2022-08-20T01:32:59;11.5;;;7.6;;
56593;SDS011;42474;51.660;5.824;2022-08-20T01:37:59;9.2;;;6.9;;
56593;SDS011;42474;51.660;5.824;2022-08-20T01:42:59;11.4;;;7.5;;
56593;SDS011;42474;51.660;5.824;2022-08-20T01:47:59;9.7;;;7.0;;
56593;SDS011;42474;51.660;5.824;2022-08-20T01:53:07;10.9;;;7.6;;
56593;SDS011;42474;51.660;5.824;2022-08-20T01:57:59;11.4;;;7.9;;
56593;SDS011;42474;51.660;5.824;2022-08-20T02:02:59;10.1;;;7.3;;
56593;SDS011;42474;51.660;5.824;2022-08-20T02:07:59;12.2;;;7.3;;
56593;SDS011;42474;51.660;5.824;2022-08-20T02:12:59;10.4;;;7.1;;
56593;SDS011;42474;51.660;5.824;2022-08-20T02:17:59;14.5;;;7.9;;
56593;SDS011;42474;51.660;5.824;2022-08-20T02:22:59;13.0;;;7.5;;
56593;SDS011;42474;51.660;5.824;2022-08-20T02:27:59;11.4;;;7.2;;
56593;SDS011;42474;51.660;5.824;2022-08-20T02:32:59;9.9;;;6.7;;
56593;SDS011;42474;51.660;5.824;2022-08-20T02:37:59;9.2;;;7.3;;
56593;SDS011;42474;51.660;5.824;2022-08-20T02:43:00;10.1;;;7.0;;
56593;SDS011;42474;51.660;5.824;2022-08-20T02:47:59;11.6;;;7.3;;
56593;SDS011;42474;51.660;5.824;2022-08-20T02:52:59;12.1;;;7.7;;
56593;SDS011;42474;51.660;5.824;2022-08-20T02:57:59;12.8;;;7.6;;
56593;SDS011;42474;51.660;5.824;2022-08-20T03:02:59;9.9;;;6.9;;
56593;SDS011;42474;51.660;5.824;2022-08-20T03:07:59;9.2;;;7.2;;
56593;SDS011;42474;51.660;5.824;2022-08-20T03:12:59;10.1;;;7.5;;
56593;SDS011;42474;51.660;5.824;2022-08-20T03:17:59;10.2;;;7.4;;
56593;SDS011;42474;51.660;5.824;2022-08-20T03:22:59;11.3;;;8.2;;
56593;SDS011;42474;51.660;5.824;2022-08-20T03:27:59;11.1;;;7.9;;
56593;SDS011;42474;51.660;5.824;2022-08-20T03:32:59;9.6;;;7.6;;
56593;SDS011;42474;51.660;5.824;2022-08-20T03:37:59;11.4;;;8.7;;
56593;SDS011;42474;51.660;5.824;2022-08-20T03:42:59;12.4;;;7.9;;
56593;SDS011;42474;51.660;5.824;2022-08-20T03:47:59;12.8;;;9.1;;
56593;SDS011;42474;51.660;5.824;2022-08-20T03:52:59;12.8;;;9.1;;
56593;SDS011;42474;51.660;5.824;2022-08-20T03:58:02;12.8;;;9.1;;
56593;SDS011;42474;51.660;5.824;2022-08-20T04:02:59;12.6;;;8.7;;
56593;SDS011;42474;51.660;5.824;2022-08-20T04:08:00;13.2;;;8.9;;
56593;SDS011;42474;51.660;5.824;2022-08-20T04:12:59;13.2;;;8.9;;
56593;SDS011;42474;51.660;5.824;2022-08-20T04:17:59;13.8;;;9.7;;
56593;SDS011;42474;51.660;5.824;2022-08-20T04:22:59;14.2;;;9.9;;
56593;SDS011;42474;51.660;5.824;2022-08-20T04:27:59;15.3;;;9.9;;
56593;SDS011;42474;51.660;5.824;2022-08-20T04:32:59;14.8;;;10.5;;
56593;SDS011;42474;51.660;5.824;2022-08-20T04:37:59;16.2;;;10.7;;
56593;SDS011;42474;51.660;5.824;2022-08-20T04:42:59;15.2;;;10.5;;
56593;SDS011;42474;51.660;5.824;2022-08-20T04:48:00;14.8;;;10.7;;
56593;SDS011;42474;51.660;5.824;2022-08-20T04:52:59;15.1;;;10.2;;
56593;SDS011;42474;51.660;5.824;2022-08-20T04:58:01;15.4;;;11.2;;
56593;SDS011;42474;51.660;5.824;2022-08-20T05:02:59;17.8;;;10.5;;
56593;SDS011;42474;51.660;5.824;2022-08-20T05:07:59;19.8;;;12.6;;
56593;SDS011;42474;51.660;5.824;2022-08-20T05:12:59;19.8;;;12.7;;
56593;SDS011;42474;51.660;5.824;2022-08-20T05:17:59;19.4;;;13.4;;
56593;SDS011;42474;51.660;5.824;2022-08-20T05:22:59;20.8;;;13.3;;
56593;SDS011;42474;51.660;5.824;2022-08-20T05:28:01;23.1;;;13.4;;
56593;SDS011;42474;51.660;5.824;2022-08-20T05:32:59;24.5;;;14.4;;
56593;SDS011;42474;51.660;5.824;2022-08-20T05:37:59;24.1;;;15.9;;
56593;SDS011;42474;51.660;5.824;2022-08-20T05:42:59;30.1;;;16.8;;
56593;SDS011;42474;51.660;5.824;2022-08-20T05:47:59;26.8;;;16.4;;
56593;SDS011;42474;51.660;5.824;2022-08-20T05:52:59;27.0;;;17.4;;
56593;SDS011;42474;51.660;5.824;2022-08-20T05:57:59;30.3;;;17.5;;
56593;SDS011;42474;51.660;5.824;2022-08-20T06:02:59;30.7;;;19.2;;
56593;SDS011;42474;51.660;5.824;2022-08-20T06:07:59;29.5;;;19.3;;
56593;SDS011;42474;51.660;5.824;2022-08-20T06:12:59;33.9;;;19.3;;
56593;SDS011;42474;51.660;5.824;2022-08-20T06:17:59;33.0;;;20.4;;
56593;SDS011;42474;51.660;5.824;2022-08-20T06:22:59;32.1;;;19.9;;
56593;SDS011;42474;51.660;5.824;2022-08-20T06:27:59;30.8;;;20.0;;
56593;SDS011;42474;51.660;5.824;2022-08-20T06:32:59;29.8;;;19.6;;
56593;SDS011;42474;51.660;5.824;2022-08-20T06:37:59;32.6;;;20.0;;
56593;SDS011;42474;51.660;5.824;2022-08-20T06:42:59;29.2;;;19.3;;
56593;SDS011;42474;51.660;5.824;2022-08-20T06:48:00;30.3;;;18.9;;
56593;SDS011;42474;51.660;5.824;2022-08-20T06:52:59;30.2;;;20.0;;
56593;SDS011;42474;51.660;5.824;2022-08-20T06:58:01;29.0;;;18.7;;
56593;SDS011;42474;51.660;5.824;2022-08-20T07:02:59;30.3;;;18.1;;
56593;SDS011;42474;51.660;5.824;2022-08-20T07:07:59;30.0;;;18.1;;
56593;SDS011;42474;51.660;5.824;2022-08-20T07:12:59;26.0;;;17.7;;
56593;SDS011;42474;51.660;5.824;2022-08-20T07:18:00;23.3;;;16.7;;
56593;SDS011;42474;51.660;5.824;2022-08-20T07:22:59;26.7;;;16.9;;
56593;SDS011;42474;51.660;5.824;2022-08-20T07:28:00;27.1;;;16.9;;
56593;SDS011;42474;51.660;5.824;2022-08-20T07:32:59;26.4;;;17.0;;
56593;SDS011;42474;51.660;5.824;2022-08-20T07:37:59;25.8;;;17.0;;
56593;SDS011;42474;51.660;5.824;2022-08-20T07:42:59;22.0;;;15.9;;
56593;SDS011;42474;51.660;5.824;2022-08-20T07:48:04;24.6;;;16.0;;
56593;SDS011;42474;51.660;5.824;2022-08-20T07:52:59;23.6;;;15.7;;
56593;SDS011;42474;51.660;5.824;2022-08-20T07:58:07;23.5;;;15.1;;
56593;SDS011;42474;51.660;5.824;2022-08-20T08:02:59;19.9;;;14.5;;
56593;SDS011;42474;51.660;5.824;2022-08-20T08:07:59;18.8;;;12.9;;
56593;SDS011;42474;51.660;5.824;2022-08-20T08:12:59;18.4;;;13.4;;
56593;SDS011;42474;51.660;5.824;2022-08-20T08:18:05;19.0;;;13.6;;
56593;SDS011;42474;51.660;5.824;2022-08-20T08:22:59;18.9;;;13.5;;
56593;SDS011;42474;51.660;5.824;2022-08-20T08:27:59;19.9;;;14.4;;
56593;SDS011;42474;51.660;5.824;2022-08-20T08:32:59;19.5;;;14.6;;
56593;SDS011;42474;51.660;5.824;2022-08-20T08:37:59;15.4;;;12.4;;
56593;SDS011;42474;51.660;5.824;2022-08-20T08:42:59;9.4;;;7.6;;
56593;SDS011;42474;51.660;5.824;2022-08-20T08:47:59;9.8;;;6.1;;
56593;SDS011;42474;51.660;5.824;2022-08-20T08:52:59;9.0;;;5.6;;
56593;SDS011;42474;51.660;5.824;2022-08-20T08:58:02;5.7;;;4.7;;
56593;SDS011;42474;51.660;5.824;2022-08-20T09:03:00;7.2;;;4.8;;
56593;SDS011;42474;51.660;5.824;2022-08-20T09:08:00;4.9;;;3.8;;
56593;SDS011;42474;51.660;5.824;2022-08-20T09:12:59;5.5;;;3.8;;
56593;SDS011;42474;51.660;5.824;2022-08-20T09:17:59;5.6;;;3.9;;
56593;SDS011;42474;51.660;5.824;2022-08-20T09:22:59;5.3;;;3.3;;
56593;SDS011;42474;51.660;5.824;2022-08-20T09:27:59;3.6;;;2.5;;
56593;SDS011;42474;51.660;5.824;2022-08-20T09:32:59;5.7;;;2.7;;
56593;SDS011;42474;51.660;5.824;2022-08-20T09:37:59;6.5;;;2.7;;
56593;SDS011;42474;51.660;5.824;2022-08-20T09:42:59;6.8;;;4.2;;
56593;SDS011;42474;51.660;5.824;2022-08-20T09:47:59;9.3;;;4.7;;
56593;SDS011;42474;51.660;5.824;2022-08-20T09:53:03;7.6;;;3.7;;
56593;SDS011;42474;51.660;5.824;2022-08-20T09:57:59;7.0;;;3.5;;
56593;SDS011;42474;51.660;5.824;2022-08-20T10:02:59;7.9;;;3.5;;
56593;SDS011;42474;51.660;5.824;2022-08-20T10:07:59;4.4;;;2.9;;
56593;SDS011;42474;51.660;5.824;2022-08-20T10:12:59;7.0;;;3.0;;
56593;SDS011;42474;51.660;5.824;2022-08-20T10:18:01;7.6;;;4.0;;
56593;SDS011;42474;51.660;5.824;2022-08-20T10:22:59;7.5;;;3.5;;
56593;SDS011;42474;51.660;5.824;2022-08-20T10:27:59;6.3;;;2.7;;
56593;SDS011;42474;51.660;5.824;2022-08-20T10:32:59;6.0;;;2.8;;
56593;SDS011;42474;51.660;5.824;2022-08-20T10:37:59;5.2;;;2.6;;
56593;SDS011;42474;51.660;5.824;2022-08-20T10:42:59;7.6;;;2.3;;
56593;SDS011;42474;51.660;5.824;2022-08-20T10:47:59;6.3;;;2.5;;
56593;SDS011;42474;51.660;5.824;2022-08-20T10:52:59;5.6;;;2.0;;
56593;SDS011;42474;51.660;5.824;2022-08-20T10:57:59;4.3;;;1.9;;
56593;SDS011;42474;51.660;5.824;2022-08-20T11:02:59;5.4;;;2.0;;
56593;SDS011;42474;51.660;5.824;2022-08-20T11:08:00;6.4;;;1.8;;
56593;SDS011;42474;51.660;5.824;2022-08-20T11:12:59;7.0;;;1.9;;
56593;SDS011;42474;51.660;5.824;2022-08-20T11:17:59;5.9;;;1.9;;
56593;SDS011;42474;51.660;5.824;2022-08-20T11:22:59;9.3;;;2.1;;
56593;SDS011;42474;51.660;5.824;2022-08-20T11:27:59;46.6;;;3.0;;
56593;SDS011;42474;51.660;5.824;2022-08-20T11:32:59;7.5;;;1.6;;
56593;SDS011;42474;51.660;5.824;2022-08-20T11:37:59;6.7;;;1.5;;
56593;SDS011;42474;51.660;5.824;2022-08-20T11:42:59;5.8;;;1.9;;
56593;SDS011;42474;51.660;5.824;2022-08-20T11:47:59;4.6;;;1.5;;
56593;SDS011;42474;51.660;5.824;2022-08-20T11:52:59;4.6;;;1.5;;
56593;SDS011;42474;51.660;5.824;2022-08-20T11:57:59;8.1;;;1.9;;
56593;SDS011;42474;51.660;5.824;2022-08-20T12:02:59;4.5;;;1.6;;
56593;SDS011;42474;51.660;5.824;2022-08-20T12:08:00;4.8;;;1.5;;
56593;SDS011;42474;51.660;5.824;2022-08-20T12:12:59;4.5;;;1.6;;
56593;SDS011;42474;51.660;5.824;2022-08-20T12:17:59;4.4;;;1.3;;
56593;SDS011;42474;51.660;5.824;2022-08-20T12:22:59;4.9;;;1.6;;
56593;SDS011;42474;51.660;5.824;2022-08-20T12:27:59;4.0;;;1.4;;
56593;SDS011;42474;51.660;5.824;2022-08-20T12:32:59;5.6;;;1.3;;
56593;SDS011;42474;51.660;5.824;2022-08-20T12:38:01;3.8;;;1.3;;
56593;SDS011;42474;51.660;5.824;2022-08-20T12:42:59;4.9;;;1.5;;
56593;SDS011;42474;51.660;5.824;2022-08-20T12:48:01;5.3;;;1.5;;
56593;SDS011;42474;51.660;5.824;2022-08-20T12:52:59;5.2;;;1.7;;
56593;SDS011;42474;51.660;5.824;2022-08-20T12:58:00;4.7;;;1.5;;
56593;SDS011;42474;51.660;5.824;2022-08-20T13:03:00;5.0;;;1.5;;
56593;SDS011;42474;51.660;5.824;2022-08-20T13:07:59;5.0;;;1.4;;
56593;SDS011;42474;51.660;5.824;2022-08-20T13:12:59;4.7;;;1.4;;
56593;SDS011;42474;51.660;5.824;2022-08-20T13:18:00;4.2;;;1.3;;
56593;SDS011;42474;51.660;5.824;2022-08-20T13:22:59;5.1;;;1.3;;
56593;SDS011;42474;51.660;5.824;2022-08-20T13:28:00;3.2;;;1.4;;
56593;SDS011;42474;51.660;5.824;2022-08-20T13:32:59;4.6;;;1.5;;
56593;SDS011;42474;51.660;5.824;2022-08-20T13:37:59;5.3;;;1.5;;
56593;SDS011;42474;51.660;5.824;2022-08-20T13:42:59;4.8;;;1.9;;
56593;SDS011;42474;51.660;5.824;2022-08-20T13:47:59;4.9;;;1.6;;
56593;SDS011;42474;51.660;5.824;2022-08-20T13:52:59;4.9;;;1.6;;
56593;SDS011;42474;51.660;5.824;2022-08-20T13:58:02;3.4;;;1.6;;
56593;SDS011;42474;51.660;5.824;2022-08-20T14:02:59;3.4;;;1.4;;
56593;SDS011;42474;51.660;5.824;2022-08-20T14:08:04;5.2;;;1.5;;
56593;SDS011;42474;51.660;5.824;2022-08-20T14:12:59;4.1;;;1.5;;
56593;SDS011;42474;51.660;5.824;2022-08-20T14:17:59;4.8;;;1.5;;
56593;SDS011;42474;51.660;5.824;2022-08-20T14:23:01;4.4;;;1.4;;
56593;SDS011;42474;51.660;5.824;2022-08-20T14:28:06;4.9;;;1.7;;
56593;SDS011;42474;51.660;5.824;2022-08-20T14:32:59;4.1;;;1.6;;
56593;SDS011;42474;51.660;5.824;2022-08-20T14:37:59;3.9;;;1.7;;
56593;SDS011;42474;51.660;5.824;2022-08-20T14:42:59;5.8;;;1.6;;
56593;SDS011;42474;51.660;5.824;2022-08-20T14:47:59;3.9;;;1.4;;
56593;SDS011;42474;51.660;5.824;2022-08-20T14:52:59;5.3;;;1.4;;
56593;SDS011;42474;51.660;5.824;2022-08-20T14:57:59;6.4;;;1.4;;
56593;SDS011;42474;51.660;5.824;2022-08-20T15:02:59;5.0;;;1.5;;
56593;SDS011;42474;51.660;5.824;2022-08-20T15:07:59;4.0;;;1.5;;
56593;SDS011;42474;51.660;5.824;2022-08-20T15:12:59;4.4;;;1.4;;
56593;SDS011;42474;51.660;5.824;2022-08-20T15:17:59;5.8;;;1.7;;
56593;SDS011;42474;51.660;5.824;2022-08-20T15:22:59;7.8;;;2.0;;
56593;SDS011;42474;51.660;5.824;2022-08-20T15:28:00;7.6;;;1.9;;
56593;SDS011;42474;51.660;5.824;2022-08-20T15:32:59;6.3;;;1.7;;
56593;SDS011;42474;51.660;5.824;2022-08-20T15:37:59;5.2;;;1.7;;
56593;SDS011;42474;51.660;5.824;2022-08-20T15:43:00;6.4;;;1.9;;
56593;SDS011;42474;51.660;5.824;2022-08-20T15:48:02;5.7;;;1.8;;
56593;SDS011;42474;51.660;5.824;2022-08-20T15:53:09;5.6;;;1.8;;
56593;SDS011;42474;51.660;5.824;2022-08-20T15:58:12;5.6;;;1.8;;
56593;SDS011;42474;51.660;5.824;2022-08-20T16:03:26;7.0;;;1.9;;
56593;SDS011;42474;51.660;5.824;2022-08-20T16:08:37;4.6;;;1.7;;
56593;SDS011;42474;51.660;5.824;2022-08-20T16:12:59;3.9;;;1.8;;
56593;SDS011;42474;51.660;5.824;2022-08-20T16:18:09;6.3;;;1.9;;
56593;SDS011;42474;51.660;5.824;2022-08-20T16:22:59;5.4;;;1.7;;
56593;SDS011;42474;51.660;5.824;2022-08-20T16:28:07;4.9;;;1.5;;
56593;SDS011;42474;51.660;5.824;2022-08-20T16:33:05;6.1;;;1.7;;
56593;SDS011;42474;51.660;5.824;2022-08-20T16:38:01;5.5;;;1.7;;
56593;SDS011;42474;51.660;5.824;2022-08-20T16:43:03;3.1;;;1.4;;
56593;SDS011;42474;51.660;5.824;2022-08-20T16:48:00;5.4;;;1.5;;
56593;SDS011;42474;51.660;5.824;2022-08-20T16:52:59;3.8;;;1.7;;
56593;SDS011;42474;51.660;5.824;2022-08-20T16:57:59;4.6;;;1.8;;
56593;SDS011;42474;51.660;5.824;2022-08-20T17:03:04;6.7;;;1.7;;
56593;SDS011;42474;51.660;5.824;2022-08-20T17:08:00;6.4;;;1.9;;
56593;SDS011;42474;51.660;5.824;2022-08-20T17:13:02;3.9;;;1.4;;
56593;SDS011;42474;51.660;5.824;2022-08-20T17:18:14;5.1;;;1.5;;
56593;SDS011;42474;51.660;5.824;2022-08-20T17:23:09;5.3;;;1.8;;
56593;SDS011;42474;51.660;5.824;2022-08-20T17:27:59;5.2;;;2.1;;
56593;SDS011;42474;51.660;5.824;2022-08-20T17:33:16;4.1;;;1.5;;
56593;SDS011;42474;51.660;5.824;2022-08-20T17:38:00;4.5;;;1.6;;
56593;SDS011;42474;51.660;5.824;2022-08-20T17:43:03;6.7;;;2.0;;
56593;SDS011;42474;51.660;5.824;2022-08-20T17:47:59;4.8;;;1.8;;
56593;SDS011;42474;51.660;5.824;2022-08-20T17:53:05;3.6;;;1.8;;
56593;SDS011;42474;51.660;5.824;2022-08-20T17:58:11;5.7;;;1.9;;
56593;SDS011;42474;51.660;5.824;2022-08-20T18:03:08;7.4;;;2.5;;
56593;SDS011;42474;51.660;5.824;2022-08-20T18:08:23;9.2;;;2.8;;
56593;SDS011;42474;51.660;5.824;2022-08-20T18:13:10;12.6;;;3.7;;
56593;SDS011;42474;51.660;5.824;2022-08-20T18:18:16;7.9;;;2.5;;
56593;SDS011;42474;51.660;5.824;2022-08-20T18:23:20;11.8;;;3.2;;
56593;SDS011;42474;51.660;5.824;2022-08-20T18:28:00;5.6;;;1.8;;
56593;SDS011;42474;51.660;5.824;2022-08-20T18:33:07;9.7;;;2.6;;
56593;SDS011;42474;51.660;5.824;2022-08-20T18:38:08;12.9;;;3.5;;
56593;SDS011;42474;51.660;5.824;2022-08-20T18:43:11;6.7;;;2.0;;
56593;SDS011;42474;51.660;5.824;2022-08-20T18:48:00;11.9;;;2.9;;
56593;SDS011;42474;51.660;5.824;2022-08-20T18:53:05;5.4;;;2.2;;
56593;SDS011;42474;51.660;5.824;2022-08-20T18:58:05;5.0;;;2.0;;
56593;SDS011;42474;51.660;5.824;2022-08-20T19:03:15;5.4;;;2.1;;
56593;SDS011;42474;51.660;5.824;2022-08-20T19:08:01;8.9;;;2.5;;
56593;SDS011;42474;51.660;5.824;2022-08-20T19:14:19;3.9;;;1.7;;
56593;SDS011;42474;51.660;5.824;2022-08-20T19:18:09;3.6;;;1.8;;
56593;SDS011;42474;51.660;5.824;2022-08-20T19:23:06;4.1;;;1.7;;
56593;SDS011;42474;51.660;5.824;2022-08-20T19:28:02;4.8;;;1.6;;
56593;SDS011;42474;51.660;5.824;2022-08-20T19:32:59;3.3;;;1.5;;
56593;SDS011;42474;51.660;5.824;2022-08-20T19:37:59;3.9;;;1.6;;
56593;SDS011;42474;51.660;5.824;2022-08-20T19:43:00;4.3;;;1.6;;
56593;SDS011;42474;51.660;5.824;2022-08-20T19:48:07;5.3;;;1.8;;
56593;SDS011;42474;51.660;5.824;2022-08-20T19:53:20;2.9;;;1.4;;
56593;SDS011;42474;51.660;5.824;2022-08-20T19:58:01;4.1;;;1.6;;
56593;SDS011;42474;51.660;5.824;2022-08-20T20:03:06;5.5;;;1.9;;
56593;SDS011;42474;51.660;5.824;2022-08-20T20:08:01;2.9;;;1.5;;
56593;SDS011;42474;51.660;5.824;2022-08-20T20:13:04;3.1;;;1.8;;
56593;SDS011;42474;51.660;5.824;2022-08-20T20:17:59;4.7;;;1.8;;
56593;SDS011;42474;51.660;5.824;2022-08-20T20:23:17;3.0;;;1.9;;
56593;SDS011;42474;51.660;5.824;2022-08-20T20:28:12;4.6;;;2.1;;
56593;SDS011;42474;51.660;5.824;2022-08-20T20:33:09;4.6;;;2.9;;
56593;SDS011;42474;51.660;5.824;2022-08-20T20:38:05;7.6;;;2.7;;
56593;SDS011;42474;51.660;5.824;2022-08-20T20:43:03;3.7;;;2.2;;
56593;SDS011;42474;51.660;5.824;2022-08-20T20:47:59;4.1;;;2.7;;
56593;SDS011;42474;51.660;5.824;2022-08-20T20:52:59;5.3;;;2.4;;
56593;SDS011;42474;51.660;5.824;2022-08-20T20:58:00;6.2;;;2.6;;
56593;SDS011;42474;51.660;5.824;2022-08-20T21:02:59;3.2;;;2.3;;
56593;SDS011;42474;51.660;5.824;2022-08-20T21:08:03;5.9;;;2.4;;
56593;SDS011;42474;51.660;5.824;2022-08-20T21:13:00;4.7;;;2.9;;
56593;SDS011;42474;51.660;5.824;2022-08-20T21:18:00;5.3;;;3.0;;
56593;SDS011;42474;51.660;5.824;2022-08-20T21:22:59;3.9;;;2.3;;
56593;SDS011;42474;51.660;5.824;2022-08-20T21:27:59;5.6;;;2.3;;
56593;SDS011;42474;51.660;5.824;2022-08-20T21:32:59;3.3;;;2.4;;
56593;SDS011;42474;51.660;5.824;2022-08-20T21:37:59;4.6;;;2.6;;
56593;SDS011;42474;51.660;5.824;2022-08-20T21:42:59;4.8;;;2.3;;
56593;SDS011;42474;51.660;5.824;2022-08-20T21:47:59;5.8;;;3.2;;
56593;SDS011;42474;51.660;5.824;2022-08-20T21:52:59;6.1;;;3.2;;
56593;SDS011;42474;51.660;5.824;2022-08-20T21:57:59;5.1;;;2.5;;
56593;SDS011;42474;51.660;5.824;2022-08-20T22:02:59;5.3;;;2.7;;
56593;SDS011;42474;51.660;5.824;2022-08-20T22:07:59;6.3;;;3.1;;
56593;SDS011;42474;51.660;5.824;2022-08-20T22:12:59;4.7;;;2.7;;
56593;SDS011;42474;51.660;5.824;2022-08-20T22:17:59;4.3;;;2.7;;
56593;SDS011;42474;51.660;5.824;2022-08-20T22:23:00;4.0;;;2.5;;
56593;SDS011;42474;51.660;5.824;2022-08-20T22:28:00;5.1;;;3.0;;
56593;SDS011;42474;51.660;5.824;2022-08-20T22:33:00;5.9;;;3.0;;
56593;SDS011;42474;51.660;5.824;2022-08-20T22:37:59;4.2;;;3.0;;
56593;SDS011;42474;51.660;5.824;2022-08-20T22:42:59;7.3;;;3.3;;
56593;SDS011;42474;51.660;5.824;2022-08-20T22:47:59;6.0;;;3.3;;
56593;SDS011;42474;51.660;5.824;2022-08-20T22:52:59;5.4;;;2.8;;
56593;SDS011;42474;51.660;5.824;2022-08-20T22:57:59;6.1;;;3.1;;
56593;SDS011;42474;51.660;5.824;2022-08-20T23:03:00;8.5;;;3.3;;
56593;SDS011;42474;51.660;5.824;2022-08-20T23:07:59;4.7;;;3.2;;
56593;SDS011;42474;51.660;5.824;2022-08-20T23:12:59;4.5;;;3.0;;
56593;SDS011;42474;51.660;5.824;2022-08-20T23:18:03;5.6;;;2.9;;
56593;SDS011;42474;51.660;5.824;2022-08-20T23:22:59;3.2;;;2.8;;
56593;SDS011;42474;51.660;5.824;2022-08-20T23:27:59;4.6;;;3.1;;
56593;SDS011;42474;51.660;5.824;2022-08-20T23:32:59;5.0;;;3.3;;
56593;SDS011;42474;51.660;5.824;2022-08-20T23:37:59;4.5;;;3.5;;
56593;SDS011;42474;51.660;5.824;2022-08-20T23:42:59;5.5;;;3.6;;
56593;SDS011;42474;51.660;5.824;2022-08-20T23:48:00;5.3;;;3.4;;
56593;SDS011;42474;51.660;5.824;2022-08-20T23:53:00;6.3;;;3.7;;
56593;SDS011;42474;51.660;5.824;2022-08-20T23:57:59;4.6;;;3.2;;
